createdAt,value
2022-10-10T00:22:57.979Z,72.46
2022-10-10T00:53:02.923Z,73.51
2022-10-10T01:23:42.792Z,74.29
2022-10-10T02:55:02.379Z,75.73
2022-10-10T03:25:07.229Z,77.01
2022-10-10T03:55:11.498Z,77.94
2022-10-10T04:25:15.596Z,77.47
2022-10-10T04:55:20.092Z,78.46
2022-10-10T05:25:24.185Z,79.31
2022-10-10T05:55:28.674Z,80.64
2022-10-10T06:25:40.455Z,79.66
2022-10-10T06:55:48.183Z,78.57
2022-10-10T07:25:52.984Z,76.24
2022-10-10T07:55:57.272Z,72.42
2022-10-10T08:26:02.074Z,70.59
2022-10-10T08:56:07.992Z,50.46
2022-10-10T09:26:14.409Z,41.91
2022-10-10T09:56:20.958Z,45.90
2022-10-10T10:26:28.392Z,37.74
2022-10-10T10:56:37.063Z,34.03
2022-10-10T11:26:45.027Z,36.42
2022-10-10T11:56:50.591Z,36.99
2022-10-10T12:27:26.665Z,40.82
2022-10-10T12:57:33.614Z,41.60
2022-10-10T13:27:40.286Z,34.03
2022-10-10T13:57:44.438Z,33.71
2022-10-10T14:27:48.943Z,35.83
2022-10-10T14:57:54.180Z,38.77
2022-10-10T15:27:58.416Z,45.10
2022-10-10T15:58:03.989Z,47.85
2022-10-10T16:28:08.227Z,50.68
2022-10-10T16:58:12.486Z,58.52
2022-10-10T17:28:17.494Z,73.37
2022-10-10T17:58:21.714Z,79.54
2022-10-10T18:28:25.688Z,81.83
2022-10-10T18:58:30.861Z,82.57
2022-10-10T19:28:35.361Z,82.27
2022-10-10T19:58:39.965Z,82.95
2022-10-10T20:28:44.475Z,81.60
2022-10-10T20:58:48.858Z,81.48
2022-10-10T21:32:26.416Z,82.41
2022-10-10T22:02:30.522Z,83.17
2022-10-10T22:32:35.248Z,83.43
2022-10-10T23:02:39.398Z,82.89
2022-10-10T23:32:43.551Z,79.58
